Time;durP1;ratioP1;P1;durP2;ratioP2;P2;SDS_P1;SDS_P2;PMS_P1;PMS_P2;Temp;Humidity;BMP_temperature;BMP_pressure;BME280_temperature;BME280_humidity;BME280_pressure;Samples;Min_cycle;Max_cycle;Signal;HPM_P1;HPM_P2
2022/07/08 00:02:54;;;;;;;5.47;1.88;;;;;;;18.93;73.31;100025.59;10379999;28;20060;-71
2022/07/08 00:07:55;;;;;;;6.57;2.58;;;;;;;19.01;73.57;100027.16;10379257;28;20078;-71
2022/07/08 00:12:56;;;;;;;7.32;2.90;;;;;;;19.00;73.78;100030.91;10378488;28;20033;-71
2022/07/08 00:17:57;;;;;;;6.53;2.50;;;;;;;18.99;74.28;100027.38;10375032;28;20508;-70
2022/07/08 00:22:58;;;;;;;6.85;2.38;;;;;;;18.97;74.73;100028.69;10397354;28;20516;-70
2022/07/08 00:27:58;;;;;;;5.95;2.10;;;;;;;18.20;75.20;99906.44;10381344;28;20081;-70
2022/07/08 00:32:59;;;;;;;9.45;2.90;;;;;;;18.97;75.44;100034.88;10378283;28;20133;-70
2022/07/08 00:38:00;;;;;;;8.75;2.58;;;;;;;19.15;75.35;100040.19;10415183;28;20504;-70
2022/07/08 00:43:01;;;;;;;4.90;2.50;;;;;;;19.19;75.24;100034.34;10419496;28;20049;-70
2022/07/08 00:48:02;;;;;;;12.63;3.17;;;;;;;19.26;75.26;100054.69;10418318;28;20044;-70
2022/07/08 00:53:03;;;;;;;7.78;2.70;;;;;;;19.22;75.84;100058.09;10419120;28;20098;-71
2022/07/08 00:58:03;;;;;;;7.32;2.65;;;;;;;18.81;76.07;99995.16;10418263;28;20045;-71
2022/07/08 01:03:04;;;;;;;11.38;3.05;;;;;;;19.19;76.14;100051.31;10417670;28;20387;-70
2022/07/08 01:08:05;;;;;;;8.93;3.17;;;;;;;19.12;76.63;100053.28;10417514;28;20119;-71
2022/07/08 01:13:06;;;;;;;19.05;3.60;;;;;;;19.11;76.99;100063.22;10417258;28;20124;-70
2022/07/08 01:18:07;;;;;;;8.77;2.45;;;;;;;18.45;77.83;99945.78;10418184;28;20090;-71
2022/07/08 01:23:08;;;;;;;8.00;3.15;;;;;;;18.29;78.40;99927.63;10417390;28;20046;-71
2022/07/08 01:28:09;;;;;;;10.50;3.22;;;;;;;18.97;78.60;100044.84;10417279;28;20045;-71
2022/07/08 01:33:10;;;;;;;16.98;4.07;;;;;;;18.99;79.24;100048.91;10416843;28;20042;-71
2022/07/08 01:38:11;;;;;;;23.98;4.13;;;;;;;18.75;79.39;100001.47;10416127;28;20053;-71
2022/07/08 01:43:12;;;;;;;11.35;3.10;;;;;;;19.08;79.74;100039.44;10416580;28;20041;-70
2022/07/08 01:48:13;;;;;;;9.18;2.90;;;;;;;19.19;80.07;100059.38;10416539;28;20041;-70
2022/07/08 01:53:14;;;;;;;26.02;3.15;;;;;;;19.12;80.23;100050.59;10416435;28;20051;-71
2022/07/08 01:58:14;;;;;;;11.02;3.17;;;;;;;18.52;80.95;99976.13;10414995;28;20128;-71
2022/07/08 02:03:15;;;;;;;9.43;2.83;;;;;;;18.39;81.65;99944.84;10416528;28;20045;-71
2022/07/08 02:08:16;;;;;;;10.82;2.78;;;;;;;19.11;82.45;100051.63;10415818;28;20045;-72
2022/07/08 02:13:18;;;;;;;30.17;3.03;;;;;;;19.23;82.88;100057.03;10415437;28;20041;-71
2022/07/08 02:18:18;;;;;;;5.68;2.53;;;;;;;19.23;82.96;100040.88;10414487;28;20045;-72
2022/07/08 02:23:19;;;;;;;3.90;2.65;;;;;;;19.12;83.27;99997.56;10414614;28;20037;-71
2022/07/08 02:28:20;;;;;;;6.97;2.83;;;;;;;19.66;83.27;100066.72;10413413;28;20136;-72
2022/07/08 02:33:21;;;;;;;6.97;2.95;;;;;;;19.88;82.75;100061.56;10414509;28;20041;-72
2022/07/08 02:38:22;;;;;;;13.48;2.53;;;;;;;20.20;80.43;100035.00;10413753;28;20077;-72
2022/07/08 02:43:23;;;;;;;7.75;2.40;;;;;;;20.79;79.18;100067.19;10413611;28;20502;-73
2022/07/08 02:48:23;;;;;;;9.07;3.33;;;;;;;20.83;78.01;100028.66;10414203;28;20041;-71
2022/07/08 02:53:24;;;;;;;12.27;2.67;;;;;;;21.34;76.84;100058.41;10413992;28;20033;-71
2022/07/08 02:58:25;;;;;;;9.02;2.33;;;;;;;21.73;75.19;100048.50;10413827;28;20048;-72
2022/07/08 03:03:26;;;;;;;11.07;3.22;;;;;;;22.51;72.65;100040.31;10413130;28;20053;-72
2022/07/08 03:08:27;;;;;;;5.63;1.98;;;;;;;23.30;69.10;100045.13;10413484;28;20045;-72
2022/07/08 03:13:27;;;;;;;14.02;2.45;;;;;;;23.19;66.56;99929.63;10412985;28;20087;-69
2022/07/08 03:18:28;;;;;;;5.53;1.98;;;;;;;24.69;63.60;100057.53;10412891;28;20041;-71
2022/07/08 03:23:32;;;;;;;9.23;2.00;;;;;;;25.54;59.16;100052.41;10412649;28;20044;-71
2022/07/08 03:28:33;;;;;;;10.02;2.10;;;;;;;26.14;57.63;100042.47;10414166;28;20586;-70
2022/07/08 03:33:34;;;;;;;12.63;1.90;;;;;;;26.65;56.03;100052.34;10421102;28;20064;-71
2022/07/08 03:38:35;;;;;;;7.45;1.90;;;;;;;26.54;54.45;99966.34;10422463;28;20152;-71
2022/07/08 03:43:36;;;;;;;10.43;2.38;;;;;;;27.40;53.24;100046.63;10421107;28;20484;-71
2022/07/08 03:48:37;;;;;;;5.80;1.83;;;;;;;27.63;52.28;100047.75;10421026;28;20080;-72
2022/07/08 03:53:38;;;;;;;8.07;1.85;;;;;;;27.74;51.81;100046.53;10411409;28;20037;-71
2022/07/08 03:58:39;;;;;;;4.07;1.83;;;;;;;27.91;51.08;100029.75;10409448;28;20084;-71
2022/07/08 04:03:39;;;;;;;14.77;2.30;;;;;;;28.34;50.05;100043.41;10419667;28;20113;-72
2022/07/08 04:08:42;;;;;;;9.50;2.05;;;;;;;28.82;49.34;100054.22;10419667;28;20163;-71
2022/07/08 04:13:43;;;;;;;;;;;;;;;29.93;47.78;100055.34;10419961;28;20092;-70
2022/07/08 04:18:44;;;;;;;8.90;2.55;;;;;;;28.77;48.54;99949.63;10419444;28;19960;-70
2022/07/08 04:23:45;;;;;;;9.27;2.22;;;;;;;29.55;47.80;100058.22;10419860;28;20423;-72
2022/07/08 04:28:45;;;;;;;11.15;2.03;;;;;;;29.38;47.71;100025.19;10417850;28;20050;-71
2022/07/08 04:33:46;;;;;;;7.50;2.50;;;;;;;29.45;47.29;100060.34;10402781;28;20033;-71
2022/07/08 04:38:47;;;;;;;12.25;2.70;;;;;;;29.39;46.99;100054.16;10394341;28;20065;-72
2022/07/08 04:43:48;;;;;;;9.82;2.22;;;;;;;29.33;47.28;100047.94;10405009;28;20120;-69
2022/07/08 04:48:49;;;;;;;12.43;1.65;;;;;;;29.08;46.24;100060.16;10418595;28;20147;-69
2022/07/08 04:53:50;;;;;;;7.65;1.70;;;;;;;28.76;46.98;100054.59;10418402;28;20389;-69
2022/07/08 04:58:50;;;;;;;7.90;2.15;;;;;;;28.68;46.39;100064.28;10417366;28;20056;-69
2022/07/08 05:03:53;;;;;;;4.60;1.83;;;;;;;28.52;45.50;100052.75;10417770;28;20475;-69
2022/07/08 05:08:54;;;;;;;13.43;2.22;;;;;;;28.59;45.46;100057.84;10417950;28;20041;-70
2022/07/08 05:13:55;;;;;;;24.27;2.38;;;;;;;28.69;45.27;100046.78;10417885;28;20060;-68
2022/07/08 05:18:56;;;;;;;8.82;2.40;;;;;;;28.15;45.33;99998.84;10416988;28;20116;-70
2022/07/08 05:23:56;;;;;;;18.92;2.40;;;;;;;27.16;45.29;99923.84;10417761;28;20125;-70
2022/07/08 05:28:57;;;;;;;5.82;1.73;;;;;;;27.84;46.52;100044.84;10417052;28;20041;-69
2022/07/08 05:33:58;;;;;;;9.00;1.85;;;;;;;27.04;45.88;99917.94;10414932;28;20038;-70
2022/07/08 05:38:59;;;;;;;6.72;1.80;;;;;;;26.89;46.41;99897.09;10415733;28;20049;-70
2022/07/08 05:43:59;;;;;;;6.82;1.48;;;;;;;27.50;45.29;100015.69;10416778;28;20041;-72
2022/07/08 05:49:00;;;;;;;8.93;2.00;;;;;;;27.39;45.65;100011.44;10416968;28;20505;-70
2022/07/08 05:54:01;;;;;;;8.10;1.85;;;;;;;27.45;45.57;99989.28;10414747;28;20044;-70
2022/07/08 05:59:02;;;;;;;15.88;1.75;;;;;;;27.85;44.73;100027.34;10416082;28;20524;-69
2022/07/08 06:04:03;;;;;;;6.53;1.60;;;;;;;27.98;43.23;100002.09;10416482;28;20489;-71
2022/07/08 06:09:04;;;;;;;12.52;1.48;;;;;;;28.21;42.78;100014.09;10415839;28;20413;-72
2022/07/08 06:14:04;;;;;;;15.25;2.22;;;;;;;28.39;41.62;100012.44;10415377;28;20128;-71
2022/07/08 06:19:05;;;;;;;8.07;1.80;;;;;;;28.52;41.29;100009.03;10415291;28;20493;-71
2022/07/08 06:24:06;;;;;;;10.30;1.95;;;;;;;28.73;40.74;100000.53;10415549;28;20038;-71
2022/07/08 06:29:07;;;;;;;11.48;1.98;;;;;;;28.63;40.54;99988.66;10414592;28;20053;-71
2022/07/08 06:34:08;;;;;;;15.13;1.83;;;;;;;28.82;40.22;99990.53;10414677;28;20092;-70
2022/07/08 06:39:09;;;;;;;18.77;2.72;;;;;;;28.71;38.46;99991.81;10413849;28;20041;-71
2022/07/08 06:44:11;;;;;;;12.60;2.05;;;;;;;28.08;38.87;99870.06;10413719;28;20500;-71
2022/07/08 06:49:12;;;;;;;26.58;2.35;;;;;;;29.05;38.82;99972.44;10414339;28;20049;-72
2022/07/08 06:59:32;;;;;;;12.80;1.98;;;;;;;29.28;36.23;99971.44;10414211;28;20037;-71
2022/07/08 07:04:32;;;;;;;38.90;2.85;;;;;;;29.57;36.30;99959.41;10396666;28;20033;-71
2022/07/08 07:09:33;;;;;;;28.52;2.40;;;;;;;29.75;35.93;99972.22;10372151;28;20686;-72
2022/07/08 07:14:34;;;;;;;10.60;2.15;;;;;;;29.08;36.52;99846.84;10372452;28;20038;-71
2022/07/08 07:19:35;;;;;;;18.25;2.10;;;;;;;29.69;36.00;99950.72;10373503;28;20100;-69
2022/07/08 07:24:36;;;;;;;11.10;1.80;;;;;;;29.21;34.87;99869.00;10371810;28;20091;-71
2022/07/08 07:29:37;;;;;;;9.43;2.30;;;;;;;29.91;35.87;99958.19;10371763;28;20120;-70
2022/07/08 07:34:37;;;;;;;9.27;1.85;;;;;;;30.13;35.35;99955.53;10371343;28;20429;-70
2022/07/08 07:39:38;;;;;;;12.05;1.92;;;;;;;30.19;34.58;99940.59;10372028;28;20057;-70
2022/07/08 07:44:39;;;;;;;7.03;1.90;;;;;;;30.16;33.51;99929.44;10371984;28;20046;-71
2022/07/08 07:49:40;;;;;;;17.10;2.60;;;;;;;30.20;33.95;99935.91;10371334;28;20494;-68
2022/07/08 07:54:40;;;;;;;9.35;2.33;;;;;;;30.35;33.52;99908.19;10372418;28;20045;-71
2022/07/08 07:59:42;;;;;;;19.02;3.03;;;;;;;30.66;33.47;99938.44;10372097;28;20057;-71
2022/07/08 08:04:44;;;;;;;51.92;5.68;;;;;;;30.25;33.22;99827.06;10371656;28;20433;-69
2022/07/08 08:09:45;;;;;;;22.60;2.92;;;;;;;30.69;32.54;99898.59;10371738;28;20038;-69
2022/07/08 08:14:45;;;;;;;16.63;2.47;;;;;;;30.85;32.57;99916.31;10399178;28;20041;-69
2022/07/08 08:19:46;;;;;;;14.57;2.30;;;;;;;30.87;32.80;99885.81;10419009;28;20041;-69
2022/07/08 08:24:47;;;;;;;28.33;3.25;;;;;;;29.95;32.79;99723.72;10420258;28;20047;-69
2022/07/08 08:29:48;;;;;;;14.18;2.55;;;;;;;30.66;32.67;99800.53;10419319;28;20052;-69
2022/07/08 08:34:49;;;;;;;20.27;2.00;;;;;;;31.38;32.41;99904.47;10417039;28;20148;-70
2022/07/08 08:39:50;;;;;;;14.38;2.20;;;;;;;31.37;32.02;99894.63;10425351;28;20056;-70
2022/07/08 08:44:51;;;;;;;8.90;1.83;;;;;;;31.60;31.66;99887.09;10416972;28;20044;-70
2022/07/08 08:50:53;;;;;;;13.57;2.00;;;;;;;31.74;31.59;99903.44;10416615;28;20041;-71
2022/07/08 08:55:27;;;;;;;11.00;2.10;;;;;;;31.68;30.39;99871.78;10415579;28;20453;-71
2022/07/08 09:00:30;;;;;;;13.23;2.15;;;;;;;31.93;30.85;99889.44;10417868;28;20543;-71
2022/07/08 09:05:32;;;;;;;;;;;;;;;32.34;30.17;99892.81;10409858;28;20071;-70
2022/07/08 09:10:37;;;;;;;14.57;2.85;;;;;;;31.93;30.18;99848.22;10413997;28;20015;-70
2022/07/08 09:15:46;;;;;;;31.63;3.88;;;;;;;31.66;30.53;99783.41;10415303;28;20037;-70
2022/07/08 09:20:51;;;;;;;9.15;2.00;;;;;;;32.29;30.54;99874.56;10417363;28;20132;-71
2022/07/08 09:25:54;;;;;;;14.35;3.40;;;;;;;32.33;29.92;99841.75;10417008;28;20044;-68
2022/07/08 09:30:57;;;;;;;24.17;3.28;;;;;;;32.42;29.58;99850.78;10417329;28;20080;-71
2022/07/08 09:36:00;;;;;;;21.20;2.53;;;;;;;32.45;29.86;99839.16;10416751;28;20061;-71
2022/07/08 09:41:04;;;;;;;17.83;2.97;;;;;;;32.53;29.90;99840.28;10416356;28;20038;-71
2022/07/08 09:46:07;;;;;;;17.20;2.22;;;;;;;32.31;29.42;99811.84;10416728;28;20034;-70
2022/07/08 09:51:08;;;;;;;15.55;2.13;;;;;;;32.00;29.11;99741.41;10416754;28;20056;-69
2022/07/08 09:56:10;;;;;;;16.00;3.00;;;;;;;32.87;29.42;99829.16;10392013;28;20410;-70
2022/07/08 10:01:11;;;;;;;16.20;2.43;;;;;;;32.77;29.25;99790.22;10375030;28;20540;-71
2022/07/08 10:06:12;;;;;;;23.30;2.97;;;;;;;33.09;28.87;99808.88;10377825;28;20070;-69
2022/07/08 10:11:14;;;;;;;11.05;2.42;;;;;;;32.96;28.78;99812.59;10415993;28;20487;-72
2022/07/08 10:16:16;;;;;;;19.67;3.10;;;;;;;33.21;28.35;99815.59;10413674;28;20040;-72
2022/07/08 10:21:22;;;;;;;13.90;2.67;;;;;;;32.79;27.99;99722.75;10415362;28;20041;-72
2022/07/08 10:26:40;;;;;;;20.55;3.03;;;;;;;33.43;27.93;99796.03;10401472;28;20037;-72
2022/07/08 10:31:54;;;;;;;20.27;2.83;;;;;;;33.38;27.95;99788.75;10376566;28;20088;-72
2022/07/08 10:36:55;;;;;;;16.85;3.20;;;;;;;33.28;27.11;99780.09;10388598;28;20418;-70
2022/07/08 10:42:03;;;;;;;63.45;5.90;;;;;;;33.51;27.92;99780.63;10388077;28;20038;-70
2022/07/08 10:47:09;;;;;;;15.52;2.78;;;;;;;33.59;26.46;99783.28;10373868;28;20552;-72
2022/07/08 10:52:11;;;;;;;42.25;3.42;;;;;;;33.16;27.83;99736.78;10372898;28;20420;-71
2022/07/08 10:57:16;;;;;;;18.10;2.97;;;;;;;32.93;27.62;99700.47;10373781;28;20052;-71
2022/07/08 11:02:17;;;;;;;8.68;2.33;;;;;;;32.83;27.94;99665.13;10373526;28;20180;-70
2022/07/08 11:07:20;;;;;;;19.95;2.72;;;;;;;33.39;26.89;99764.81;10372203;28;20192;-71
2022/07/08 11:12:35;;;;;;;15.77;2.90;;;;;;;33.27;26.94;99761.97;10372444;28;20041;-69
2022/07/08 11:17:37;;;;;;;25.35;3.47;;;;;;;33.12;27.72;99755.13;10372700;28;20502;-72
2022/07/08 11:22:40;;;;;;;31.15;3.65;;;;;;;33.06;26.94;99704.97;10407361;28;20045;-69
2022/07/08 11:27:42;;;;;;;32.42;3.40;;;;;;;33.39;27.27;99738.06;10394145;28;20501;-71
2022/07/08 11:32:47;;;;;;;15.03;2.67;;;;;;;33.57;27.20;99719.50;10404509;28;20063;-72
2022/07/08 11:37:48;;;;;;;14.65;2.50;;;;;;;33.00;27.20;99622.94;10380315;28;20058;-72
2022/07/08 11:42:49;;;;;;;15.20;3.00;;;;;;;33.06;27.56;99638.13;10405020;28;20041;-71
2022/07/08 11:47:50;;;;;;;30.05;3.25;;;;;;;33.55;27.33;99705.25;10407070;28;20095;-71
2022/07/08 11:52:50;;;;;;;10.27;2.45;;;;;;;33.50;26.93;99699.13;10417548;28;20069;-73
2022/07/08 11:57:51;;;;;;;9.55;2.08;;;;;;;33.69;27.44;99704.97;10414344;28;20049;-73
2022/07/08 12:02:52;;;;;;;14.50;2.53;;;;;;;33.60;28.04;99680.28;10402973;28;20080;-72
2022/07/08 12:07:54;;;;;;;18.73;2.58;;;;;;;33.84;27.16;99693.31;10399863;28;20045;-72
2022/07/08 12:12:58;;;;;;;17.40;3.10;;;;;;;33.23;27.22;99598.63;10419210;28;20081;-72
2022/07/08 12:17:59;;;;;;;25.27;3.20;;;;;;;33.85;27.69;99680.34;10419525;28;20092;-71
2022/07/08 12:23:00;;;;;;;15.35;2.88;;;;;;;32.67;27.44;99486.16;10413677;28;20377;-70
2022/07/08 12:28:03;;;;;;;14.00;2.50;;;;;;;33.69;27.15;99671.91;10419889;28;20049;-71
2022/07/08 12:33:05;;;;;;;26.35;4.03;;;;;;;33.43;27.52;99677.63;10418727;28;20460;-70
2022/07/08 12:38:07;;;;;;;17.50;3.00;;;;;;;33.33;27.26;99676.09;10419598;28;20061;-72
2022/07/08 12:43:11;;;;;;;18.05;3.30;;;;;;;33.14;27.55;99684.00;10413469;28;20073;-72
2022/07/08 12:48:13;;;;;;;25.58;3.13;;;;;;;32.51;27.44;99580.22;10388355;28;20056;-73
2022/07/08 12:53:14;;;;;;;19.92;3.03;;;;;;;33.29;27.96;99682.59;10414234;28;20033;-73
2022/07/08 12:58:14;;;;;;;19.90;3.58;;;;;;;32.65;27.81;99574.47;10414306;28;20378;-70
2022/07/08 13:03:15;;;;;;;18.02;3.85;;;;;;;33.16;27.78;99696.31;10415897;28;20111;-72
2022/07/08 13:08:16;;;;;;;21.77;3.55;;;;;;;33.19;28.27;99684.63;10409692;28;20096;-72
2022/07/08 13:13:17;;;;;;;9.95;2.55;;;;;;;33.27;27.65;99685.72;10387181;28;20053;-71
2022/07/08 13:18:17;;;;;;;18.75;2.85;;;;;;;33.18;27.98;99679.47;10391854;28;20100;-70
2022/07/08 13:23:18;;;;;;;10.82;2.95;;;;;;;33.08;27.70;99694.41;10386091;28;20037;-68
2022/07/08 13:28:19;;;;;;;35.40;3.67;;;;;;;33.18;27.95;99672.00;10416073;28;20049;-71
2022/07/08 13:33:19;;;;;;;32.20;4.32;;;;;;;33.09;27.69;99660.28;10401727;28;20037;-71
2022/07/08 13:38:20;;;;;;;37.17;4.05;;;;;;;32.91;28.13;99648.56;10404525;28;20497;-68
2022/07/08 13:43:21;;;;;;;15.52;3.15;;;;;;;33.08;27.51;99642.13;10417019;28;20099;-71
2022/07/08 13:48:22;;;;;;;20.08;2.85;;;;;;;33.25;27.99;99654.94;10415975;28;20494;-71
2022/07/08 13:53:23;;;;;;;19.45;3.08;;;;;;;33.27;28.34;99649.94;10399157;28;20034;-72
2022/07/08 13:58:24;;;;;;;13.88;3.03;;;;;;;33.06;27.70;99622.41;10396197;28;20057;-72
2022/07/08 14:03:24;;;;;;;22.17;3.50;;;;;;;32.78;27.82;99585.53;10410720;28;20126;-72
2022/07/08 14:08:25;;;;;;;41.28;5.47;;;;;;;32.89;27.82;99639.03;10410323;28;20044;-74
2022/07/08 14:13:26;;;;;;;27.88;3.92;;;;;;;32.72;27.78;99659.97;10410819;28;20037;-73
2022/07/08 14:18:27;;;;;;;30.08;3.85;;;;;;;32.62;28.01;99663.13;10410300;28;20033;-70
2022/07/08 14:23:28;;;;;;;20.77;3.10;;;;;;;32.45;28.33;99652.22;10406616;28;20412;-70
2022/07/08 14:28:29;;;;;;;19.55;3.17;;;;;;;31.66;28.68;99549.25;10403251;28;20390;-73
2022/07/08 14:33:30;;;;;;;22.02;3.72;;;;;;;31.55;28.65;99552.31;10409120;28;20045;-71
2022/07/08 14:38:30;;;;;;;21.83;3.30;;;;;;;32.29;28.15;99654.69;10408805;28;20049;-72
2022/07/08 14:43:31;;;;;;;33.65;4.50;;;;;;;32.22;28.53;99649.72;10404942;28;20041;-70
2022/07/08 14:48:32;;;;;;;18.27;3.25;;;;;;;32.26;28.34;99653.41;10409804;28;20044;-71
2022/07/08 14:53:33;;;;;;;21.63;3.63;;;;;;;32.16;28.45;99637.31;10408780;28;20036;-72
2022/07/08 14:58:34;;;;;;;50.10;4.75;;;;;;;32.17;28.98;99658.13;10406446;28;20040;-72
2022/07/08 15:03:34;;;;;;;15.13;3.40;;;;;;;32.10;28.48;99668.00;10410292;28;20041;-72
2022/07/08 15:08:35;;;;;;;12.13;3.17;;;;;;;31.91;29.10;99679.38;10413511;28;20412;-72
2022/07/08 15:13:36;;;;;;;22.17;2.55;;;;;;;31.69;28.79;99667.44;10412270;28;20029;-72
2022/07/08 15:18:37;;;;;;;44.72;4.10;;;;;;;31.54;28.83;99693.47;10407585;28;20041;-72
2022/07/08 15:23:37;;;;;;;31.17;3.97;;;;;;;31.21;29.08;99662.94;10413007;28;20037;-73
2022/07/08 15:28:39;;;;;;;19.45;3.60;;;;;;;31.14;29.20;99687.28;10397940;28;20401;-72
2022/07/08 15:33:41;;;;;;;40.05;4.60;;;;;;;31.11;29.03;99705.22;10412850;28;20045;-73
2022/07/08 15:38:42;;;;;;;15.45;3.08;;;;;;;30.91;29.10;99701.13;10413493;28;20084;-73
2022/07/08 15:43:42;;;;;;;33.08;4.15;;;;;;;30.92;28.34;99710.97;10413381;28;20033;-72
2022/07/08 15:48:43;;;;;;;39.47;4.78;;;;;;;30.19;28.11;99620.09;10409592;28;20049;-73
2022/07/08 15:53:44;;;;;;;21.67;3.40;;;;;;;30.53;28.28;99691.78;10412126;28;20071;-74
2022/07/08 15:58:50;;;;;;;29.60;4.10;;;;;;;30.39;28.14;99700.91;10412852;28;20046;-71
2022/07/08 16:03:50;;;;;;;20.42;3.47;;;;;;;30.34;28.07;99724.94;10411591;28;20084;-72
2022/07/08 16:08:52;;;;;;;16.55;3.55;;;;;;;30.08;28.34;99711.06;10393121;28;20516;-72
2022/07/08 16:13:53;;;;;;;44.65;4.30;;;;;;;29.97;28.05;99722.25;10386904;28;20049;-72
2022/07/08 16:18:54;;;;;;;34.33;4.05;;;;;;;29.74;28.17;99707.78;10406435;28;20116;-72
2022/07/08 16:23:55;;;;;;;43.45;4.35;;;;;;;28.77;28.53;99580.63;10412161;28;20140;-72
2022/07/08 16:29:14;;;;;;;24.05;4.28;;;;;;;29.64;28.05;99737.31;10412070;28;20052;-71
2022/07/08 16:34:15;;;;;;;19.02;4.18;;;;;;;29.47;28.44;99737.97;10412012;28;20140;-73
2022/07/08 16:39:23;;;;;;;223.95;14.23;;;;;;;29.33;28.43;99747.00;10418435;28;20541;-75
2022/07/08 16:44:24;;;;;;;27.30;3.33;;;;;;;28.91;29.01;99718.09;10415773;28;20069;-72
2022/07/08 16:49:25;;;;;;;26.77;3.13;;;;;;;29.06;28.75;99750.59;10418824;28;20076;-72
2022/07/08 16:54:26;;;;;;;26.58;2.58;;;;;;;28.03;29.21;99611.59;10419659;28;20037;-72
2022/07/08 16:59:27;;;;;;;26.60;2.80;;;;;;;28.80;29.35;99760.41;10419049;28;20607;-72
2022/07/08 17:04:27;;;;;;;26.13;3.40;;;;;;;28.64;29.72;99768.91;10418266;28;20044;-72
2022/07/08 17:09:28;;;;;;;21.08;2.85;;;;;;;28.50;30.07;99776.25;10417661;28;20099;-72
2022/07/08 17:14:30;;;;;;;18.65;2.30;;;;;;;27.64;30.24;99669.28;10430040;28;20095;-71
2022/07/08 17:19:32;;;;;;;20.17;2.58;;;;;;;28.11;30.52;99761.06;10405036;28;20130;-72
2022/07/08 17:24:33;;;;;;;33.90;3.75;;;;;;;27.35;31.05;99658.56;10417011;28;20083;-69
2022/07/08 17:29:49;;;;;;;20.50;2.88;;;;;;;27.87;30.90;99782.22;10414116;28;20090;-70
2022/07/08 17:34:51;;;;;;;18.83;2.75;;;;;;;27.81;31.06;99799.78;10409740;28;20102;-71
2022/07/08 17:39:54;;;;;;;39.73;3.43;;;;;;;27.66;31.37;99798.84;10417527;28;20052;-74
2022/07/08 17:44:55;;;;;;;20.10;3.15;;;;;;;27.51;31.42;99791.69;10413912;28;20049;-73
2022/07/08 17:49:56;;;;;;;26.75;3.15;;;;;;;27.38;31.62;99794.34;10415487;28;20132;-74
2022/07/08 17:54:57;;;;;;;24.25;3.30;;;;;;;27.24;31.92;99803.22;10413822;28;20183;-73
2022/07/08 17:59:58;;;;;;;21.42;3.13;;;;;;;27.10;32.11;99807.72;10414044;28;20037;-74
2022/07/08 18:04:59;;;;;;;15.13;2.30;;;;;;;26.97;32.46;99805.72;10413644;28;20417;-71
2022/07/08 18:09:59;;;;;;;39.42;3.60;;;;;;;26.87;33.67;99814.84;10410855;28;20045;-72
2022/07/08 18:15:00;;;;;;;24.75;2.70;;;;;;;26.16;34.57;99726.44;10412664;28;20115;-69
2022/07/08 18:20:03;;;;;;;43.10;3.08;;;;;;;26.48;35.74;99801.31;10403638;28;20041;-73
2022/07/08 18:25:04;;;;;;;29.05;3.33;;;;;;;26.34;36.88;99798.41;10414786;28;20041;-73
2022/07/08 18:30:09;;;;;;;18.45;2.30;;;;;;;26.26;37.38;99797.13;10390678;28;20048;-72
2022/07/08 18:35:10;;;;;;;26.63;2.70;;;;;;;26.14;37.75;99794.75;10373672;28;20081;-72
2022/07/08 18:40:11;;;;;;;20.02;2.60;;;;;;;26.11;38.36;99794.53;10383656;28;20457;-72
2022/07/08 18:45:11;;;;;;;35.58;3.45;;;;;;;26.11;39.08;99805.41;10374189;28;20042;-73
2022/07/08 18:50:12;;;;;;;24.25;3.28;;;;;;;26.03;39.56;99809.56;10387597;28;20043;-73
2022/07/08 18:55:13;;;;;;;20.23;3.30;;;;;;;25.22;39.40;99693.94;10409823;28;20132;-74
2022/07/08 19:00:14;;;;;;;21.55;2.92;;;;;;;25.16;40.10;99711.31;10411207;28;20133;-72
2022/07/08 19:05:15;;;;;;;25.67;3.65;;;;;;;25.70;40.28;99808.41;10411649;28;20041;-73
2022/07/08 19:10:16;;;;;;;18.27;2.38;;;;;;;24.80;41.03;99678.91;10413237;28;20041;-73
2022/07/08 19:15:17;;;;;;;22.58;3.13;;;;;;;25.51;41.37;99800.84;10413015;28;20041;-73
2022/07/08 19:20:18;;;;;;;14.88;3.05;;;;;;;25.42;42.17;99794.38;10410102;28;20037;-72
2022/07/08 19:25:19;;;;;;;18.25;2.30;;;;;;;25.21;42.73;99760.25;10409332;28;20156;-73
2022/07/08 19:30:20;;;;;;;19.52;2.33;;;;;;;24.65;43.03;99692.50;10380711;28;20046;-73
2022/07/08 19:35:21;;;;;;;10.93;1.63;;;;;;;25.18;43.85;99783.34;10373069;28;20053;-72
2022/07/08 19:40:25;;;;;;;15.55;1.80;;;;;;;23.68;44.16;99553.22;10371609;28;20494;-73
2022/07/08 19:45:25;;;;;;;;;;;;;;;25.11;44.49;99790.97;10372073;28;20041;-74
2022/07/08 19:50:26;;;;;;;16.67;2.25;;;;;;;24.62;44.58;99755.53;10372010;28;19917;-74
2022/07/08 19:55:30;;;;;;;8.65;2.10;;;;;;;24.67;45.43;99771.81;10372013;28;20481;-73
2022/07/08 20:00:31;;;;;;;19.65;2.90;;;;;;;24.66;45.85;99794.63;10370743;28;20129;-72
2022/07/08 20:05:33;;;;;;;9.25;2.17;;;;;;;23.87;46.04;99675.56;10371148;28;20572;-76
2022/07/08 20:10:34;;;;;;;12.95;1.80;;;;;;;24.30;46.65;99760.16;10382879;28;20041;-75
2022/07/08 20:15:35;;;;;;;9.32;1.83;;;;;;;24.22;46.93;99747.13;10379063;28;20041;-74
2022/07/08 20:20:36;;;;;;;11.52;1.55;;;;;;;24.04;47.15;99734.13;10403269;28;20056;-72
2022/07/08 20:25:36;;;;;;;11.98;1.60;;;;;;;24.18;47.67;99758.81;10378017;28;20037;-76
2022/07/08 20:30:38;;;;;;;5.45;1.50;;;;;;;24.17;47.86;99785.16;10391479;28;20056;-73
2022/07/08 20:35:39;;;;;;;8.07;1.42;;;;;;;24.09;48.26;99772.94;10379129;28;20062;-73
2022/07/08 20:42:38;;;;;;;15.20;1.63;;;;;;;23.84;48.47;99756.63;10379315;28;20045;-74
2022/07/08 20:46:00;;;;;;;5.53;1.60;;;;;;;22.75;48.73;99584.03;10377600;28;20084;-73
2022/07/08 20:51:01;;;;;;;8.27;1.50;;;;;;;23.73;49.54;99760.44;10378403;28;20041;-74
2022/07/08 20:56:02;;;;;;;8.23;1.38;;;;;;;23.55;50.10;99731.91;10377184;28;20048;-73
2022/07/08 21:01:03;;;;;;;5.15;1.23;;;;;;;23.59;50.58;99750.06;10386740;28;20456;-74
2022/07/08 21:06:04;;;;;;;11.30;1.38;;;;;;;23.47;50.95;99741.38;10389129;28;20123;-77
2022/07/08 21:11:08;;;;;;;6.00;1.38;;;;;;;22.77;51.67;99632.50;10406581;28;20068;-75
2022/07/08 21:16:09;;;;;;;4.93;1.30;;;;;;;23.21;52.01;99724.22;10401296;28;20133;-75
2022/07/08 21:21:10;;;;;;;5.82;1.33;;;;;;;23.04;52.38;99716.31;10376180;28;20416;-75
2022/07/08 21:26:10;;;;;;;3.80;1.20;;;;;;;23.19;52.74;99735.34;10378876;28;20046;-75
2022/07/08 21:31:11;;;;;;;5.68;1.15;;;;;;;23.14;53.09;99720.94;10376107;28;20096;-74
2022/07/08 21:36:12;;;;;;;3.85;1.40;;;;;;;23.09;53.72;99723.63;10375767;28;20077;-75
2022/07/08 21:41:13;;;;;;;4.88;1.50;;;;;;;22.91;54.12;99693.19;10376571;28;20501;-75
2022/07/08 21:46:14;;;;;;;5.90;1.30;;;;;;;22.46;54.48;99623.44;10416866;28;20044;-75
2022/07/08 21:51:15;;;;;;;4.45;1.20;;;;;;;22.47;54.76;99611.56;10416749;28;20048;-73
2022/07/08 21:56:15;;;;;;;4.20;1.60;;;;;;;23.01;55.28;99717.66;10399146;28;20516;-75
2022/07/08 22:01:16;;;;;;;6.28;1.33;;;;;;;22.27;55.23;99601.44;10415659;28;20041;-75
2022/07/08 22:06:17;;;;;;;3.75;1.40;;;;;;;22.23;55.73;99603.06;10416045;28;20069;-75
2022/07/08 22:11:18;;;;;;;5.63;1.10;;;;;;;22.97;55.84;99729.28;10415400;28;20045;-74
2022/07/08 22:16:20;;;;;;;5.60;1.20;;;;;;;22.94;56.17;99736.03;10415897;28;20439;-75
2022/07/08 22:21:20;;;;;;;8.48;1.13;;;;;;;22.86;56.77;99724.88;10415452;28;20052;-76
2022/07/08 22:26:21;;;;;;;3.22;1.10;;;;;;;22.75;57.23;99722.13;10415187;28;20038;-75
2022/07/08 22:31:22;;;;;;;2.78;1.35;;;;;;;21.97;57.61;99616.38;10415212;28;20041;-74
2022/07/08 22:36:25;;;;;;;6.18;1.30;;;;;;;22.13;58.41;99662.47;10414767;28;20057;-74
2022/07/08 22:41:26;;;;;;;4.43;1.25;;;;;;;22.05;59.09;99682.72;10414079;28;20386;-75
2022/07/08 22:46:27;;;;;;;7.85;1.33;;;;;;;22.18;59.61;99717.44;10414411;28;20057;-73
2022/07/08 22:51:28;;;;;;;5.25;1.45;;;;;;;22.11;60.18;99717.66;10413677;28;20398;-74
2022/07/08 22:56:28;;;;;;;4.50;1.35;;;;;;;21.44;60.68;99623.56;10413562;28;20102;-73
2022/07/08 23:01:29;;;;;;;4.43;1.30;;;;;;;21.69;61.25;99663.50;10413455;28;20033;-74
2022/07/08 23:06:30;;;;;;;4.28;1.30;;;;;;;21.97;61.61;99704.81;10413031;28;20037;-71
2022/07/08 23:11:31;;;;;;;2.78;1.23;;;;;;;21.99;61.70;99705.38;10413625;28;20041;-68
2022/07/08 23:16:31;;;;;;;5.05;1.35;;;;;;;22.01;62.00;99701.31;10414073;28;20061;-73